Rockwood, Texas
Current Conditions -  °F | °C
As of 11:15 AM on Sunday 23 Nov 2014 (Local Time) from KBBD Reporting Station
Clear Clear  
Wind Chill: 70°   Ceiling: Unl
Heat Index: 70°   Visibility: 10mi
Dew Point: 37°   Wind: 22mph
Humidity: 31%   Direction: 250°WSW
Pressure: 29.62"   Gusts: NA
Location:  31.5°N, 99.37°W
Report Text: KBBD 231715Z AUTO 25019KT 10SM CLR 21/03 A2962 RMK
Loading
Personal Weather Stations






























Interactive Weather Map New forecast layout! Learn more

10-Day Weather Forecast

Advertisements
Track Severe Weather on mobile